Airfield :
LOGIN :

Register | Disclaimer

   EN    FR    IT 

 










Legend :    VFR   Marginal VFR   IFR   Intensive IFR   Very Intensive IFR
Visi :
Ceiling :
>= 8 km
>= 3000ft
5 to 8 km
1000 to 3000 ft
1500m to 5 km
500 to 1000 ft
800 to 1500m
200 to 500 ft
< 800m
< 200 ft
Symbols :   Thunderstorms  Fog  Heavy snow  Heavy precipitations  Wind > 20 kt
SIGMETs :     Misc.  Thunderstorms  Icing  Turbulence  Mountain Waves  Volcanic Ashes






- Airport Elevation : 326 ft
- IATA code : LCG


LECO - A Coruna

CURRENT METAR :
  • 270500Z 27003KT 230V330 9999 SCT048 11/09 Q1015 NOSIG

EXPIRED METARs :
  • 270430Z 26003KT 9999 BKN048 11/10 Q1016 NOSIG
  • 270400Z AUTO 26004KT 220V320 CAVOK 12/10 Q1016
  • 270330Z AUTO 25003KT 210V300 9999 FEW017 12/10 Q1016
  • 270300Z AUTO 24004KT 210V290 9999 -RA BKN017 OVC023 12/11 Q1016
  • 270230Z AUTO 25008KT 210V300 6000 -RA SCT021 BKN027 BKN033 12/11 Q1016

TAF TAF LECO
Valid from the 27 at 03:00 until the 28 at 03:00 UTC


270200Z 2703/2803 21009KT 9999 SCT020 SCT035 TX13/2715Z TN08/2707Z
TEMPO 2703/2715 4000 RA
PROB40
TEMPO 2703/2705 27010KT 3000 RA SHRA BKN010 BKN020TCU
PROB40
TEMPO 2715/2721 25015G30KT 3000 RA SHRA BKN014 SCT020TCU



MET'MAP, your aeronautical weather chart ! - Copyright ORBIFLY December 2007 - Disclaimer

ORBIFLY MET'MAP TEAM :

Programming & Development : Alexandra Zaïnal
Concept & original design : Baudouin d'Aumeries
Assistance for programming : Marc-Olivier Méhu
Technical & hardware support : Manuel Goepfert

Contact : metmap@orbifly.com




SOURCES & CREDITS :

   NOAA